KRSV

Crawford Co Airport

Robinson, Illinois, USA
METAR KRSV 151855Z AUTO 31009KT 10SM SCT100 M04/M09 A3002 RMK AO2 T10441095
Observed Flight Rules
Feb-15 @ 18:55 UTC (12 minutes ago) Visual Flight Rules
Wind Visibility Clouds
310° at 9 knots 10 miles
  • Scattered at 10,000' AGL
Temperatures Readings
Current -4°C / 25°F
Dewpoint -10°C / 14°F
Humidity 63%
Altimeter 30.02" Hg
Pressure 1016.62 hPa
Elevation 141
METAR KRSV 151855Z AUTO 31009KT 10SM SCT100 M04/M09 A3002 RMK AO2 T10441095
Observed Flight Rules
Feb-15 @ 18:55 UTC
(12 minutes ago)
VFR
Wind Visibility
310° at 9 knots 10 miles
Clouds
  • Scattered at 10,000' AGL
Temperature Dewpoint
-4°C / 25°F -10°C / 14°F
Humidity Altimeter Pressure
63% 30.02" Hg 1016.62 hPa